sensor_id;sensor_type;location;lat;lon;timestamp;temperature;humidity
72762;SHT30;60886;55.034;73.150;2023-04-25T00:00:58;3.56;49.26
72762;SHT30;60886;55.034;73.150;2023-04-25T00:03:59;3.62;48.44
72762;SHT30;60886;55.034;73.150;2023-04-25T00:07:02;3.66;50.22
72762;SHT30;60886;55.034;73.150;2023-04-25T00:10:04;3.65;47.94
72762;SHT30;60886;55.034;73.150;2023-04-25T00:13:07;3.67;48.66
72762;SHT30;60886;55.034;73.150;2023-04-25T00:16:09;3.69;48.15
72762;SHT30;60886;55.034;73.150;2023-04-25T00:19:12;3.67;47.66
72762;SHT30;60886;55.034;73.150;2023-04-25T00:22:14;3.69;48.01
72762;SHT30;60886;55.034;73.150;2023-04-25T00:25:16;3.67;47.69
72762;SHT30;60886;55.034;73.150;2023-04-25T00:28:17;3.72;48.67
72762;SHT30;60886;55.034;73.150;2023-04-25T00:31:19;3.77;47.94
72762;SHT30;60886;55.034;73.150;2023-04-25T00:34:26;3.80;47.76
72762;SHT30;60886;55.034;73.150;2023-04-25T00:37:27;3.83;47.61
72762;SHT30;60886;55.034;73.150;2023-04-25T00:40:29;3.91;47.88
72762;SHT30;60886;55.034;73.150;2023-04-25T00:43:32;3.96;47.93
72762;SHT30;60886;55.034;73.150;2023-04-25T00:46:35;4.03;47.35
72762;SHT30;60886;55.034;73.150;2023-04-25T00:49:37;4.10;47.48
72762;SHT30;60886;55.034;73.150;2023-04-25T00:52:43;4.20;47.14
72762;SHT30;60886;55.034;73.150;2023-04-25T00:55:46;4.25;46.20
72762;SHT30;60886;55.034;73.150;2023-04-25T00:58:50;4.37;46.31
72762;SHT30;60886;55.034;73.150;2023-04-25T01:01:54;4.42;45.80
72762;SHT30;60886;55.034;73.150;2023-04-25T01:04:55;4.47;45.44
72762;SHT30;60886;55.034;73.150;2023-04-25T01:07:57;4.57;45.44
72762;SHT30;60886;55.034;73.150;2023-04-25T01:11:05;4.67;45.04
72762;SHT30;60886;55.034;73.150;2023-04-25T01:14:07;4.78;44.82
72762;SHT30;60886;55.034;73.150;2023-04-25T01:17:09;4.86;44.77
72762;SHT30;60886;55.034;73.150;2023-04-25T01:20:11;4.91;44.41
72762;SHT30;60886;55.034;73.150;2023-04-25T01:23:14;4.89;43.84
72762;SHT30;60886;55.034;73.150;2023-04-25T01:26:16;4.92;43.95
72762;SHT30;60886;55.034;73.150;2023-04-25T01:29:19;4.97;44.22
72762;SHT30;60886;55.034;73.150;2023-04-25T01:32:22;5.15;44.53
72762;SHT30;60886;55.034;73.150;2023-04-25T01:35:27;5.39;44.23
72762;SHT30;60886;55.034;73.150;2023-04-25T01:38:29;5.64;44.23
72762;SHT30;60886;55.034;73.150;2023-04-25T01:41:31;5.77;43.37
72762;SHT30;60886;55.034;73.150;2023-04-25T01:44:33;5.95;43.26
72762;SHT30;60886;55.034;73.150;2023-04-25T01:47:39;6.11;43.22
72762;SHT30;60886;55.034;73.150;2023-04-25T01:50:51;6.05;43.15
72762;SHT30;60886;55.034;73.150;2023-04-25T01:53:52;6.10;43.52
72762;SHT30;60886;55.034;73.150;2023-04-25T01:57:05;6.26;43.26
72762;SHT30;60886;55.034;73.150;2023-04-25T02:00:10;6.39;42.47
72762;SHT30;60886;55.034;73.150;2023-04-25T02:03:14;6.49;43.01
72762;SHT30;60886;55.034;73.150;2023-04-25T02:06:16;6.61;42.90
72762;SHT30;60886;55.034;73.150;2023-04-25T02:09:20;6.77;42.16
72762;SHT30;60886;55.034;73.150;2023-04-25T02:12:27;6.96;41.57
72762;SHT30;60886;55.034;73.150;2023-04-25T02:15:32;7.14;40.50
72762;SHT30;60886;55.034;73.150;2023-04-25T02:19:05;7.18;40.02
72762;SHT30;60886;55.034;73.150;2023-04-25T02:22:07;7.21;39.59
72762;SHT30;60886;55.034;73.150;2023-04-25T02:25:08;7.23;40.30
72762;SHT30;60886;55.034;73.150;2023-04-25T02:28:11;7.35;40.09
72762;SHT30;60886;55.034;73.150;2023-04-25T02:31:13;7.48;40.61
72762;SHT30;60886;55.034;73.150;2023-04-25T02:34:20;7.77;39.89
72762;SHT30;60886;55.034;73.150;2023-04-25T02:37:21;7.96;38.87
72762;SHT30;60886;55.034;73.150;2023-04-25T02:40:27;8.12;39.00
72762;SHT30;60886;55.034;73.150;2023-04-25T02:43:30;8.22;39.30
72762;SHT30;60886;55.034;73.150;2023-04-25T02:46:33;8.13;38.90
72762;SHT30;60886;55.034;73.150;2023-04-25T02:49:34;8.21;38.83
72762;SHT30;60886;55.034;73.150;2023-04-25T02:52:36;8.34;38.76
72762;SHT30;60886;55.034;73.150;2023-04-25T02:55:46;8.29;38.45
72762;SHT30;60886;55.034;73.150;2023-04-25T02:58:47;8.39;38.52
72762;SHT30;60886;55.034;73.150;2023-04-25T03:01:49;8.29;39.34
72762;SHT30;60886;55.034;73.150;2023-04-25T03:04:53;8.32;39.04
72762;SHT30;60886;55.034;73.150;2023-04-25T03:07:55;8.29;38.62
72762;SHT30;60886;55.034;73.150;2023-04-25T03:11:01;8.39;39.09
72762;SHT30;60886;55.034;73.150;2023-04-25T03:14:03;8.44;38.66
72762;SHT30;60886;55.034;73.150;2023-04-25T03:17:15;8.61;38.62
72762;SHT30;60886;55.034;73.150;2023-04-25T03:20:23;8.87;38.42
72762;SHT30;60886;55.034;73.150;2023-04-25T03:23:29;9.03;38.48
72762;SHT30;60886;55.034;73.150;2023-04-25T03:26:35;9.12;38.08
72762;SHT30;60886;55.034;73.150;2023-04-25T03:29:37;9.25;37.54
72762;SHT30;60886;55.034;73.150;2023-04-25T03:32:40;9.45;38.51
72762;SHT30;60886;55.034;73.150;2023-04-25T03:35:52;9.62;37.53
72762;SHT30;60886;55.034;73.150;2023-04-25T03:39:04;9.69;36.63
72762;SHT30;60886;55.034;73.150;2023-04-25T03:42:07;9.66;35.72
72762;SHT30;60886;55.034;73.150;2023-04-25T03:45:09;9.68;35.51
72762;SHT30;60886;55.034;73.150;2023-04-25T03:48:11;9.78;35.99
72762;SHT30;60886;55.034;73.150;2023-04-25T03:51:13;9.85;35.81
72762;SHT30;60886;55.034;73.150;2023-04-25T03:54:17;9.85;35.98
72762;SHT30;60886;55.034;73.150;2023-04-25T03:57:32;10.09;36.22
72762;SHT30;60886;55.034;73.150;2023-04-25T04:00:34;10.32;36.10
72762;SHT30;60886;55.034;73.150;2023-04-25T04:03:47;10.57;35.07
72762;SHT30;60886;55.034;73.150;2023-04-25T04:06:48;10.75;35.53
72762;SHT30;60886;55.034;73.150;2023-04-25T04:09:59;11.08;34.46
72762;SHT30;60886;55.034;73.150;2023-04-25T04:13:06;11.38;34.08
72762;SHT30;60886;55.034;73.150;2023-04-25T04:16:08;11.62;34.16
72762;SHT30;60886;55.034;73.150;2023-04-25T04:19:14;11.74;33.24
72762;SHT30;60886;55.034;73.150;2023-04-25T04:22:22;11.74;33.31
72762;SHT30;60886;55.034;73.150;2023-04-25T04:25:25;12.05;33.85
72762;SHT30;60886;55.034;73.150;2023-04-25T04:28:58;12.14;33.72
72762;SHT30;60886;55.034;73.150;2023-04-25T04:32:30;12.55;32.81
72762;SHT30;60886;55.034;73.150;2023-04-25T04:35:39;12.66;33.06
72762;SHT30;60886;55.034;73.150;2023-04-25T04:38:41;12.65;33.24
72762;SHT30;60886;55.034;73.150;2023-04-25T04:42:02;12.95;32.64
72762;SHT30;60886;55.034;73.150;2023-04-25T04:45:26;13.22;32.50
72762;SHT30;60886;55.034;73.150;2023-04-25T04:49:11;13.60;33.21
72762;SHT30;60886;55.034;73.150;2023-04-25T04:52:31;13.78;32.90
72762;SHT30;60886;55.034;73.150;2023-04-25T04:56:04;14.11;32.58
72762;SHT30;60886;55.034;73.150;2023-04-25T04:59:24;13.94;33.00
72762;SHT30;60886;55.034;73.150;2023-04-25T05:02:52;13.97;33.15
72762;SHT30;60886;55.034;73.150;2023-04-25T05:06:16;13.78;33.62
72762;SHT30;60886;55.034;73.150;2023-04-25T05:09:46;13.73;33.80
72762;SHT30;60886;55.034;73.150;2023-04-25T05:13:12;14.08;34.14
72762;SHT30;60886;55.034;73.150;2023-04-25T05:16:46;13.88;35.50
72762;SHT30;60886;55.034;73.150;2023-04-25T05:20:30;14.24;35.53
72762;SHT30;60886;55.034;73.150;2023-04-25T05:23:37;14.42;35.37
72762;SHT30;60886;55.034;73.150;2023-04-25T05:27:08;14.75;35.30
72762;SHT30;60886;55.034;73.150;2023-04-25T05:30:39;15.14;36.14
72762;SHT30;60886;55.034;73.150;2023-04-25T05:34:09;15.30;34.63
72762;SHT30;60886;55.034;73.150;2023-04-25T05:37:18;15.55;35.60
72762;SHT30;60886;55.034;73.150;2023-04-25T05:40:29;15.65;34.47
72762;SHT30;60886;55.034;73.150;2023-04-25T05:44:01;15.64;34.67
72762;SHT30;60886;55.034;73.150;2023-04-25T05:47:15;15.74;34.23
72762;SHT30;60886;55.034;73.150;2023-04-25T05:50:38;15.60;35.51
72762;SHT30;60886;55.034;73.150;2023-04-25T05:54:14;15.64;36.95
72762;SHT30;60886;55.034;73.150;2023-04-25T05:57:23;15.98;36.07
72762;SHT30;60886;55.034;73.150;2023-04-25T06:00:34;16.29;35.53
72762;SHT30;60886;55.034;73.150;2023-04-25T06:03:36;16.25;35.47
72762;SHT30;60886;55.034;73.150;2023-04-25T06:06:46;16.11;35.15
72762;SHT30;60886;55.034;73.150;2023-04-25T06:09:47;16.09;35.97
72762;SHT30;60886;55.034;73.150;2023-04-25T06:12:50;16.08;36.39
72762;SHT30;60886;55.034;73.150;2023-04-25T06:15:53;15.98;35.94
72762;SHT30;60886;55.034;73.150;2023-04-25T06:18:54;15.94;36.83
72762;SHT30;60886;55.034;73.150;2023-04-25T06:21:56;16.00;37.65
72762;SHT30;60886;55.034;73.150;2023-04-25T06:24:57;16.11;38.14
72762;SHT30;60886;55.034;73.150;2023-04-25T06:28:05;16.22;37.05
72762;SHT30;60886;55.034;73.150;2023-04-25T06:31:07;16.36;38.36
72762;SHT30;60886;55.034;73.150;2023-04-25T06:34:09;16.46;38.34
72762;SHT30;60886;55.034;73.150;2023-04-25T06:37:13;16.48;38.29
72762;SHT30;60886;55.034;73.150;2023-04-25T06:40:16;16.53;38.31
72762;SHT30;60886;55.034;73.150;2023-04-25T06:43:18;16.56;39.13
72762;SHT30;60886;55.034;73.150;2023-04-25T06:46:46;16.57;38.81
72762;SHT30;60886;55.034;73.150;2023-04-25T06:49:49;16.51;39.30
72762;SHT30;60886;55.034;73.150;2023-04-25T06:52:50;16.46;40.35
72762;SHT30;60886;55.034;73.150;2023-04-25T06:55:59;16.59;39.67
72762;SHT30;60886;55.034;73.150;2023-04-25T06:59:09;16.60;39.50
72762;SHT30;60886;55.034;73.150;2023-04-25T07:02:12;16.63;39.73
72762;SHT30;60886;55.034;73.150;2023-04-25T07:05:14;16.67;39.88
72762;SHT30;60886;55.034;73.150;2023-04-25T07:08:21;16.70;39.47
72762;SHT30;60886;55.034;73.150;2023-04-25T07:11:22;16.67;40.20
72762;SHT30;60886;55.034;73.150;2023-04-25T07:14:29;16.62;39.79
72762;SHT30;60886;55.034;73.150;2023-04-25T07:17:32;16.63;39.65
72762;SHT30;60886;55.034;73.150;2023-04-25T07:20:39;16.77;39.53
72762;SHT30;60886;55.034;73.150;2023-04-25T07:23:41;16.69;39.52
72762;SHT30;60886;55.034;73.150;2023-04-25T07:26:48;16.81;39.43
72762;SHT30;60886;55.034;73.150;2023-04-25T07:29:57;16.86;39.41
72762;SHT30;60886;55.034;73.150;2023-04-25T07:32:59;16.94;39.25
72762;SHT30;60886;55.034;73.150;2023-04-25T07:36:00;16.99;39.68
72762;SHT30;60886;55.034;73.150;2023-04-25T07:39:02;17.06;39.30
72762;SHT30;60886;55.034;73.150;2023-04-25T07:42:15;17.08;39.18
72762;SHT30;60886;55.034;73.150;2023-04-25T07:45:18;17.34;39.02
72762;SHT30;60886;55.034;73.150;2023-04-25T07:48:21;17.54;38.92
72762;SHT30;60886;55.034;73.150;2023-04-25T07:51:34;17.72;38.59
72762;SHT30;60886;55.034;73.150;2023-04-25T07:54:40;17.86;38.92
72762;SHT30;60886;55.034;73.150;2023-04-25T07:57:50;17.88;38.33
72762;SHT30;60886;55.034;73.150;2023-04-25T08:00:57;17.81;37.40
72762;SHT30;60886;55.034;73.150;2023-04-25T08:04:18;17.79;38.09
72762;SHT30;60886;55.034;73.150;2023-04-25T08:07:27;17.85;37.95
72762;SHT30;60886;55.034;73.150;2023-04-25T08:10:39;18.03;38.00
72762;SHT30;60886;55.034;73.150;2023-04-25T08:13:47;18.03;37.63
72762;SHT30;60886;55.034;73.150;2023-04-25T08:16:49;17.96;37.58
72762;SHT30;60886;55.034;73.150;2023-04-25T08:19:51;17.91;37.84
72762;SHT30;60886;55.034;73.150;2023-04-25T08:23:03;18.09;37.68
72762;SHT30;60886;55.034;73.150;2023-04-25T08:26:19;18.28;37.29
72762;SHT30;60886;55.034;73.150;2023-04-25T08:29:21;18.42;37.42
72762;SHT30;60886;55.034;73.150;2023-04-25T08:32:25;18.40;36.53
72762;SHT30;60886;55.034;73.150;2023-04-25T08:35:56;18.34;36.49
72762;SHT30;60886;55.034;73.150;2023-04-25T08:38:59;18.29;36.28
72762;SHT30;60886;55.034;73.150;2023-04-25T08:42:05;18.37;36.43
72762;SHT30;60886;55.034;73.150;2023-04-25T08:45:12;18.56;36.35
72762;SHT30;60886;55.034;73.150;2023-04-25T08:48:31;18.73;35.94
72762;SHT30;60886;55.034;73.150;2023-04-25T08:51:34;18.84;36.21
72762;SHT30;60886;55.034;73.150;2023-04-25T08:54:48;18.97;35.81
72762;SHT30;60886;55.034;73.150;2023-04-25T08:57:51;18.88;35.36
72762;SHT30;60886;55.034;73.150;2023-04-25T09:00:55;18.90;35.42
72762;SHT30;60886;55.034;73.150;2023-04-25T09:04:14;18.96;35.76
72762;SHT30;60886;55.034;73.150;2023-04-25T09:07:16;19.10;34.86
72762;SHT30;60886;55.034;73.150;2023-04-25T09:10:27;19.00;34.81
72762;SHT30;60886;55.034;73.150;2023-04-25T09:13:31;18.88;35.37
72762;SHT30;60886;55.034;73.150;2023-04-25T09:17:00;19.08;34.27
72762;SHT30;60886;55.034;73.150;2023-04-25T09:20:16;19.10;34.97
72762;SHT30;60886;55.034;73.150;2023-04-25T09:23:19;19.03;34.62
72762;SHT30;60886;55.034;73.150;2023-04-25T09:26:25;19.10;34.44
72762;SHT30;60886;55.034;73.150;2023-04-25T09:29:31;19.24;34.02
72762;SHT30;60886;55.034;73.150;2023-04-25T09:32:34;19.27;34.23
72762;SHT30;60886;55.034;73.150;2023-04-25T09:35:43;19.35;34.22
72762;SHT30;60886;55.034;73.150;2023-04-25T09:38:52;19.29;33.98
72762;SHT30;60886;55.034;73.150;2023-04-25T09:42:12;19.19;34.51
72762;SHT30;60886;55.034;73.150;2023-04-25T09:45:19;19.22;34.48
72762;SHT30;60886;55.034;73.150;2023-04-25T09:48:28;19.25;33.83
72762;SHT30;60886;55.034;73.150;2023-04-25T09:51:33;19.28;34.23
72762;SHT30;60886;55.034;73.150;2023-04-25T09:54:35;19.29;34.05
72762;SHT30;60886;55.034;73.150;2023-04-25T09:57:54;19.28;34.37
72762;SHT30;60886;55.034;73.150;2023-04-25T10:01:01;19.29;34.73
72762;SHT30;60886;55.034;73.150;2023-04-25T10:04:24;19.27;34.26
72762;SHT30;60886;55.034;73.150;2023-04-25T10:07:51;19.28;34.38
72762;SHT30;60886;55.034;73.150;2023-04-25T10:10:53;19.31;34.80
72762;SHT30;60886;55.034;73.150;2023-04-25T10:13:55;19.27;34.54
72762;SHT30;60886;55.034;73.150;2023-04-25T10:16:58;19.27;34.88
72762;SHT30;60886;55.034;73.150;2023-04-25T10:20:10;19.28;35.02
72762;SHT30;60886;55.034;73.150;2023-04-25T10:23:14;19.27;34.59
72762;SHT30;60886;55.034;73.150;2023-04-25T10:26:16;19.34;34.52
72762;SHT30;60886;55.034;73.150;2023-04-25T10:29:26;19.36;34.18
72762;SHT30;60886;55.034;73.150;2023-04-25T10:32:27;19.44;33.71
72762;SHT30;60886;55.034;73.150;2023-04-25T10:35:30;19.45;33.34
72762;SHT30;60886;55.034;73.150;2023-04-25T10:38:32;19.45;33.99
72762;SHT30;60886;55.034;73.150;2023-04-25T10:41:47;19.45;33.46
72762;SHT30;60886;55.034;73.150;2023-04-25T10:45:05;19.39;33.16
72762;SHT30;60886;55.034;73.150;2023-04-25T10:48:29;19.32;33.69
72762;SHT30;60886;55.034;73.150;2023-04-25T10:51:32;19.27;33.27
72762;SHT30;60886;55.034;73.150;2023-04-25T10:54:34;19.14;33.58
72762;SHT30;60886;55.034;73.150;2023-04-25T10:57:42;19.11;34.24
72762;SHT30;60886;55.034;73.150;2023-04-25T11:00:45;19.06;33.77
72762;SHT30;60886;55.034;73.150;2023-04-25T11:03:46;19.04;33.86
72762;SHT30;60886;55.034;73.150;2023-04-25T11:10:18;19.01;34.39
72762;SHT30;60886;55.034;73.150;2023-04-25T11:13:21;19.11;33.38
72762;SHT30;60886;55.034;73.150;2023-04-25T11:16:24;19.22;33.85
72762;SHT30;60886;55.034;73.150;2023-04-25T11:19:27;19.34;33.37
72762;SHT30;60886;55.034;73.150;2023-04-25T11:22:29;19.54;32.13
72762;SHT30;60886;55.034;73.150;2023-04-25T11:25:31;19.63;31.67
72762;SHT30;60886;55.034;73.150;2023-04-25T11:28:32;19.72;31.32
72762;SHT30;60886;55.034;73.150;2023-04-25T11:31:34;19.57;31.49
72762;SHT30;60886;55.034;73.150;2023-04-25T11:34:46;19.38;31.47
72762;SHT30;60886;55.034;73.150;2023-04-25T11:37:48;19.34;31.61
72762;SHT30;60886;55.034;73.150;2023-04-25T11:40:53;19.44;31.78
72762;SHT30;60886;55.034;73.150;2023-04-25T11:43:55;19.44;31.50
72762;SHT30;60886;55.034;73.150;2023-04-25T11:46:56;19.44;31.35
72762;SHT30;60886;55.034;73.150;2023-04-25T11:50:07;19.41;31.81
72762;SHT30;60886;55.034;73.150;2023-04-25T11:53:19;19.39;31.56
72762;SHT30;60886;55.034;73.150;2023-04-25T11:56:22;19.36;32.31
72762;SHT30;60886;55.034;73.150;2023-04-25T11:59:24;19.38;32.75
72762;SHT30;60886;55.034;73.150;2023-04-25T12:02:26;19.32;31.94
72762;SHT30;60886;55.034;73.150;2023-04-25T12:05:30;19.31;31.43
72762;SHT30;60886;55.034;73.150;2023-04-25T12:08:34;19.27;31.77
72762;SHT30;60886;55.034;73.150;2023-04-25T12:14:46;19.24;31.65
72762;SHT30;60886;55.034;73.150;2023-04-25T12:17:50;19.21;31.92
72762;SHT30;60886;55.034;73.150;2023-04-25T12:20:58;19.22;31.82
72762;SHT30;60886;55.034;73.150;2023-04-25T12:24:23;19.18;31.91
72762;SHT30;60886;55.034;73.150;2023-04-25T12:27:26;19.07;32.02
72762;SHT30;60886;55.034;73.150;2023-04-25T12:30:28;19.01;32.40
72762;SHT30;60886;55.034;73.150;2023-04-25T12:33:36;18.98;32.53
72762;SHT30;60886;55.034;73.150;2023-04-25T12:36:46;18.97;32.47
72762;SHT30;60886;55.034;73.150;2023-04-25T12:39:58;18.93;32.25
72762;SHT30;60886;55.034;73.150;2023-04-25T12:42:59;18.93;32.47
72762;SHT30;60886;55.034;73.150;2023-04-25T12:46:01;18.84;32.51
72762;SHT30;60886;55.034;73.150;2023-04-25T12:49:03;18.81;33.08
72762;SHT30;60886;55.034;73.150;2023-04-25T12:52:05;18.78;33.04
72762;SHT30;60886;55.034;73.150;2023-04-25T12:55:07;18.67;33.18
72762;SHT30;60886;55.034;73.150;2023-04-25T12:58:09;18.70;33.31
72762;SHT30;60886;55.034;73.150;2023-04-25T13:01:10;18.61;33.61
72762;SHT30;60886;55.034;73.150;2023-04-25T13:04:23;18.53;33.98
72762;SHT30;60886;55.034;73.150;2023-04-25T13:07:25;18.49;33.84
72762;SHT30;60886;55.034;73.150;2023-04-25T13:10:26;18.43;33.46
72762;SHT30;60886;55.034;73.150;2023-04-25T13:13:27;18.42;34.17
72762;SHT30;60886;55.034;73.150;2023-04-25T13:16:29;18.37;33.58
72762;SHT30;60886;55.034;73.150;2023-04-25T13:19:30;18.32;34.01
72762;SHT30;60886;55.034;73.150;2023-04-25T13:22:32;18.30;33.95
72762;SHT30;60886;55.034;73.150;2023-04-25T13:25:33;18.26;34.06
72762;SHT30;60886;55.034;73.150;2023-04-25T13:28:35;18.13;34.28
72762;SHT30;60886;55.034;73.150;2023-04-25T13:31:46;18.06;34.21
72762;SHT30;60886;55.034;73.150;2023-04-25T13:34:47;17.95;34.61
72762;SHT30;60886;55.034;73.150;2023-04-25T13:37:53;17.78;35.08
72762;SHT30;60886;55.034;73.150;2023-04-25T13:40:54;17.64;35.26
72762;SHT30;60886;55.034;73.150;2023-04-25T13:43:56;17.51;35.55
72762;SHT30;60886;55.034;73.150;2023-04-25T13:46:58;17.41;35.87
72762;SHT30;60886;55.034;73.150;2023-04-25T13:50:02;17.32;35.97
72762;SHT30;60886;55.034;73.150;2023-04-25T13:53:07;17.23;36.24
72762;SHT30;60886;55.034;73.150;2023-04-25T13:56:09;17.10;36.15
72762;SHT30;60886;55.034;73.150;2023-04-25T13:59:23;16.96;36.70
72762;SHT30;60886;55.034;73.150;2023-04-25T14:02:24;16.84;36.73
72762;SHT30;60886;55.034;73.150;2023-04-25T14:05:27;16.73;37.26
72762;SHT30;60886;55.034;73.150;2023-04-25T14:08:28;16.65;37.51
72762;SHT30;60886;55.034;73.150;2023-04-25T14:11:30;16.52;38.08
72762;SHT30;60886;55.034;73.150;2023-04-25T14:14:31;16.43;38.33
72762;SHT30;60886;55.034;73.150;2023-04-25T14:17:33;16.32;38.43
72762;SHT30;60886;55.034;73.150;2023-04-25T14:20:34;16.21;38.75
72762;SHT30;60886;55.034;73.150;2023-04-25T14:23:36;16.12;38.84
72762;SHT30;60886;55.034;73.150;2023-04-25T14:26:46;16.02;39.18
72762;SHT30;60886;55.034;73.150;2023-04-25T14:29:47;15.95;39.28
72762;SHT30;60886;55.034;73.150;2023-04-25T14:32:49;15.97;39.05
72762;SHT30;60886;55.034;73.150;2023-04-25T14:35:51;15.91;39.05
72762;SHT30;60886;55.034;73.150;2023-04-25T14:38:54;15.92;39.11
72762;SHT30;60886;55.034;73.150;2023-04-25T14:41:56;15.82;39.37
72762;SHT30;60886;55.034;73.150;2023-04-25T14:44:57;15.75;39.76
72762;SHT30;60886;55.034;73.150;2023-04-25T14:47:59;15.58;40.26
72762;SHT30;60886;55.034;73.150;2023-04-25T14:51:11;15.51;40.31
72762;SHT30;60886;55.034;73.150;2023-04-25T14:54:12;15.39;40.57
72762;SHT30;60886;55.034;73.150;2023-04-25T14:57:15;15.33;40.38
72762;SHT30;60886;55.034;73.150;2023-04-25T15:00:17;15.27;40.76
72762;SHT30;60886;55.034;73.150;2023-04-25T15:03:20;15.22;40.63
72762;SHT30;60886;55.034;73.150;2023-04-25T15:06:22;15.20;40.81
72762;SHT30;60886;55.034;73.150;2023-04-25T15:09:31;15.17;40.89
72762;SHT30;60886;55.034;73.150;2023-04-25T15:12:33;15.22;40.94
72762;SHT30;60886;55.034;73.150;2023-04-25T15:15:34;15.19;40.74
72762;SHT30;60886;55.034;73.150;2023-04-25T15:18:36;15.23;40.67
72762;SHT30;60886;55.034;73.150;2023-04-25T15:21:46;15.22;41.16
72762;SHT30;60886;55.034;73.150;2023-04-25T15:24:48;15.14;41.11
72762;SHT30;60886;55.034;73.150;2023-04-25T15:28:00;15.10;40.98
72762;SHT30;60886;55.034;73.150;2023-04-25T15:31:01;15.09;40.66
72762;SHT30;60886;55.034;73.150;2023-04-25T15:34:07;15.10;40.63
72762;SHT30;60886;55.034;73.150;2023-04-25T15:37:09;15.13;40.71
72762;SHT30;60886;55.034;73.150;2023-04-25T15:40:13;15.11;40.56
72762;SHT30;60886;55.034;73.150;2023-04-25T15:43:20;15.02;40.87
72762;SHT30;60886;55.034;73.150;2023-04-25T15:50:12;14.95;40.93
72762;SHT30;60886;55.034;73.150;2023-04-25T15:53:24;14.87;41.12
72762;SHT30;60886;55.034;73.150;2023-04-25T15:56:26;14.82;41.37
72762;SHT30;60886;55.034;73.150;2023-04-25T15:59:28;14.72;41.60
72762;SHT30;60886;55.034;73.150;2023-04-25T16:02:29;14.66;41.69
72762;SHT30;60886;55.034;73.150;2023-04-25T16:05:31;14.58;41.78
72762;SHT30;60886;55.034;73.150;2023-04-25T16:08:32;14.56;41.63
72762;SHT30;60886;55.034;73.150;2023-04-25T16:11:35;14.56;41.58
72762;SHT30;60886;55.034;73.150;2023-04-25T16:14:37;14.52;41.60
72762;SHT30;60886;55.034;73.150;2023-04-25T16:17:44;14.46;41.57
72762;SHT30;60886;55.034;73.150;2023-04-25T16:20:55;14.38;41.83
72762;SHT30;60886;55.034;73.150;2023-04-25T16:23:57;14.29;42.22
72762;SHT30;60886;55.034;73.150;2023-04-25T16:27:09;14.22;42.46
72762;SHT30;60886;55.034;73.150;2023-04-25T16:30:10;14.15;42.65
72762;SHT30;60886;55.034;73.150;2023-04-25T16:33:12;14.07;43.01
72762;SHT30;60886;55.034;73.150;2023-04-25T16:36:13;13.94;43.42
72762;SHT30;60886;55.034;73.150;2023-04-25T16:39:15;13.87;43.49
72762;SHT30;60886;55.034;73.150;2023-04-25T16:42:18;13.73;43.83
72762;SHT30;60886;55.034;73.150;2023-04-25T16:45:20;13.59;44.23
72762;SHT30;60886;55.034;73.150;2023-04-25T16:48:22;13.53;44.38
72762;SHT30;60886;55.034;73.150;2023-04-25T16:51:27;13.49;44.32
72762;SHT30;60886;55.034;73.150;2023-04-25T16:54:29;13.49;44.21
72762;SHT30;60886;55.034;73.150;2023-04-25T16:57:34;13.43;44.54
72762;SHT30;60886;55.034;73.150;2023-04-25T17:00:37;13.42;44.12
72762;SHT30;60886;55.034;73.150;2023-04-25T17:03:52;13.47;43.99
72762;SHT30;60886;55.034;73.150;2023-04-25T17:07:04;13.47;43.92
72762;SHT30;60886;55.034;73.150;2023-04-25T17:10:05;13.43;44.10
72762;SHT30;60886;55.034;73.150;2023-04-25T17:13:09;13.36;44.13
72762;SHT30;60886;55.034;73.150;2023-04-25T17:16:14;13.29;44.15
72762;SHT30;60886;55.034;73.150;2023-04-25T17:19:21;13.22;44.47
72762;SHT30;60886;55.034;73.150;2023-04-25T17:22:24;13.15;44.64
72762;SHT30;60886;55.034;73.150;2023-04-25T17:25:31;13.10;45.01
72762;SHT30;60886;55.034;73.150;2023-04-25T17:28:32;13.15;44.93
72762;SHT30;60886;55.034;73.150;2023-04-25T17:31:34;13.15;44.98
72762;SHT30;60886;55.034;73.150;2023-04-25T17:34:36;13.19;44.83
72762;SHT30;60886;55.034;73.150;2023-04-25T17:37:40;13.16;44.85
72762;SHT30;60886;55.034;73.150;2023-04-25T17:40:47;13.20;44.71
72762;SHT30;60886;55.034;73.150;2023-04-25T17:43:48;13.22;44.59
72762;SHT30;60886;55.034;73.150;2023-04-25T17:46:52;13.20;44.57
72762;SHT30;60886;55.034;73.150;2023-04-25T17:50:07;13.22;44.65
72762;SHT30;60886;55.034;73.150;2023-04-25T17:53:09;13.20;44.56
72762;SHT30;60886;55.034;73.150;2023-04-25T17:56:10;13.23;44.57
72762;SHT30;60886;55.034;73.150;2023-04-25T17:59:16;13.20;44.57
72762;SHT30;60886;55.034;73.150;2023-04-25T18:02:18;13.19;44.47
72762;SHT30;60886;55.034;73.150;2023-04-25T18:05:19;13.19;44.48
72762;SHT30;60886;55.034;73.150;2023-04-25T18:08:35;13.12;44.60
72762;SHT30;60886;55.034;73.150;2023-04-25T18:11:46;13.05;44.83
72762;SHT30;60886;55.034;73.150;2023-04-25T18:14:48;12.99;45.07
72762;SHT30;60886;55.034;73.150;2023-04-25T18:17:55;12.91;45.29
72762;SHT30;60886;55.034;73.150;2023-04-25T18:20:59;12.84;45.60
72762;SHT30;60886;55.034;73.150;2023-04-25T18:24:01;12.82;45.47
72762;SHT30;60886;55.034;73.150;2023-04-25T18:27:02;12.84;45.51
72762;SHT30;60886;55.034;73.150;2023-04-25T18:30:07;12.74;45.67
72762;SHT30;60886;55.034;73.150;2023-04-25T18:33:15;12.68;45.86
72762;SHT30;60886;55.034;73.150;2023-04-25T18:36:16;12.65;45.93
72762;SHT30;60886;55.034;73.150;2023-04-25T18:39:18;12.58;46.10
72762;SHT30;60886;55.034;73.150;2023-04-25T18:42:21;12.55;46.31
72762;SHT30;60886;55.034;73.150;2023-04-25T18:45:22;12.48;46.39
72762;SHT30;60886;55.034;73.150;2023-04-25T18:48:25;12.46;46.59
72762;SHT30;60886;55.034;73.150;2023-04-25T18:51:29;12.37;46.71
72762;SHT30;60886;55.034;73.150;2023-04-25T18:54:42;12.33;47.04
72762;SHT30;60886;55.034;73.150;2023-04-25T18:57:43;12.28;47.12
72762;SHT30;60886;55.034;73.150;2023-04-25T19:00:44;12.17;47.41
72762;SHT30;60886;55.034;73.150;2023-04-25T19:03:57;12.14;47.59
72762;SHT30;60886;55.034;73.150;2023-04-25T19:06:59;12.08;47.79
72762;SHT30;60886;55.034;73.150;2023-04-25T19:10:02;12.08;47.84
72762;SHT30;60886;55.034;73.150;2023-04-25T19:13:04;12.07;47.94
72762;SHT30;60886;55.034;73.150;2023-04-25T19:16:06;12.07;48.07
72762;SHT30;60886;55.034;73.150;2023-04-25T19:19:13;12.03;47.90
72762;SHT30;60886;55.034;73.150;2023-04-25T19:22:14;12.03;48.13
72762;SHT30;60886;55.034;73.150;2023-04-25T19:25:17;12.03;48.13
72762;SHT30;60886;55.034;73.150;2023-04-25T19:28:18;11.97;48.32
72762;SHT30;60886;55.034;73.150;2023-04-25T19:31:20;11.97;48.46
72762;SHT30;60886;55.034;73.150;2023-04-25T19:34:23;12.01;48.51